sensor_id;sensor_type;location;lat;lon;timestamp;pressure;altitude;pressure_sealevel;temperature;humidity
30714;BME280;17465;47.934;33.430;2023-03-04T00:00:27;57352.67;;;-140.43;69.85
30714;BME280;17465;47.934;33.430;2023-03-04T00:02:57;57341.02;;;-140.43;70.14
30714;BME280;17465;47.934;33.430;2023-03-04T00:05:28;57331.49;;;-140.43;69.65
30714;BME280;17465;47.934;33.430;2023-03-04T00:07:58;57349.49;;;-140.43;70.20
30714;BME280;17465;47.934;33.430;2023-03-04T00:10:29;57335.73;;;-140.43;70.81
30714;BME280;17465;47.934;33.430;2023-03-04T00:13:00;57359.03;;;-140.43;71.43
30714;BME280;17465;47.934;33.430;2023-03-04T00:15:31;57341.02;;;-140.43;70.51
30714;BME280;17465;47.934;33.430;2023-03-04T00:18:02;57350.55;;;-140.43;70.45
30714;BME280;17465;47.934;33.430;2023-03-04T00:20:32;57335.73;;;-140.43;72.13
30714;BME280;17465;47.934;33.430;2023-03-04T00:23:03;57359.03;;;-140.43;70.97
30714;BME280;17465;47.934;33.430;2023-03-04T00:25:34;57331.49;;;-140.43;70.39
30714;BME280;17465;47.934;33.430;2023-03-04T00:28:05;57354.79;;;-140.43;71.19
30714;BME280;17465;47.934;33.430;2023-03-04T00:30:35;57347.38;;;-140.43;72.27
30714;BME280;17465;47.934;33.430;2023-03-04T00:33:06;57351.61;;;-140.43;72.73
30714;BME280;17465;47.934;33.430;2023-03-04T00:35:36;57351.61;;;-140.43;72.73
30714;BME280;17465;47.934;33.430;2023-03-04T00:38:07;57352.67;;;-140.43;74.11
30714;BME280;17465;47.934;33.430;2023-03-04T00:40:38;57334.67;;;-140.43;74.29
30714;BME280;17465;47.934;33.430;2023-03-04T00:43:09;57334.67;;;-140.43;74.29
30714;BME280;17465;47.934;33.430;2023-03-04T00:45:40;57369.62;;;-140.43;74.89
30714;BME280;17465;47.934;33.430;2023-03-04T00:48:11;57364.32;;;-140.43;74.28
30714;BME280;17465;47.934;33.430;2023-03-04T00:50:43;57354.79;;;-140.43;75.08
30714;BME280;17465;47.934;33.430;2023-03-04T00:53:13;57352.67;;;-140.43;75.52
30714;BME280;17465;47.934;33.430;2023-03-04T00:55:44;57353.73;;;-140.43;75.27
30714;BME280;17465;47.934;33.430;2023-03-04T00:58:15;57343.14;;;-140.43;75.16
30714;BME280;17465;47.934;33.430;2023-03-04T01:00:46;57374.91;;;-140.43;73.79
30714;BME280;17465;47.934;33.430;2023-03-04T01:03:17;57344.20;;;-140.43;74.94
30714;BME280;17465;47.934;33.430;2023-03-04T01:05:48;57338.90;;;-140.43;75.40
30714;BME280;17465;47.934;33.430;2023-03-04T01:08:19;57362.20;;;-140.43;75.55
30714;BME280;17465;47.934;33.430;2023-03-04T01:10:50;57367.50;;;-140.43;74.65
30714;BME280;17465;47.934;33.430;2023-03-04T01:13:20;57356.91;;;-140.43;75.45
30714;BME280;17465;47.934;33.430;2023-03-04T01:15:51;57356.91;;;-140.43;75.45
30714;BME280;17465;47.934;33.430;2023-03-04T01:18:22;57325.14;;;-140.43;75.86
30714;BME280;17465;47.934;33.430;2023-03-04T01:20:53;57348.43;;;-140.43;75.89
30714;BME280;17465;47.934;33.430;2023-03-04T01:23:23;57332.55;;;-140.43;75.75
30714;BME280;17465;47.934;33.430;2023-03-04T01:25:54;57369.62;;;-140.43;76.14
30714;BME280;17465;47.934;33.430;2023-03-04T01:28:25;57369.62;;;-140.43;76.14
30714;BME280;17465;47.934;33.430;2023-03-04T01:30:55;57323.02;;;-140.43;77.08
30714;BME280;17465;47.934;33.430;2023-03-04T01:33:25;57347.38;;;-140.43;77.81
30714;BME280;17465;47.934;33.430;2023-03-04T01:35:56;57355.85;;;-140.43;78.46
30714;BME280;17465;47.934;33.430;2023-03-04T01:38:27;57339.96;;;-140.43;78.45
30714;BME280;17465;47.934;33.430;2023-03-04T01:40:58;57349.49;;;-140.43;78.96
30714;BME280;17465;47.934;33.430;2023-03-04T01:43:29;57375.97;;;-140.43;78.81
30714;BME280;17465;47.934;33.430;2023-03-04T01:46:01;57360.08;;;-140.43;78.83
30714;BME280;17465;47.934;33.430;2023-03-04T01:48:34;57360.08;;;-140.43;78.83
30714;BME280;17465;47.934;33.430;2023-03-04T01:51:09;57343.14;;;-140.43;79.65
30714;BME280;17465;47.934;33.430;2023-03-04T01:53:38;57352.67;;;-140.43;80.12
30714;BME280;17465;47.934;33.430;2023-03-04T01:56:23;57354.79;;;-140.43;79.91
30714;BME280;17465;47.934;33.430;2023-03-04T02:01:52;57356.91;;;-140.43;80.64
30714;BME280;17465;47.934;33.430;2023-03-04T02:04:32;57387.62;;;-140.43;81.71
30714;BME280;17465;47.934;33.430;2023-03-04T02:07:04;57363.26;;;-140.43;81.50
30714;BME280;17465;47.934;33.430;2023-03-04T02:09:39;57378.09;;;-140.43;80.44
30714;BME280;17465;47.934;33.430;2023-03-04T02:12:09;57378.09;;;-140.43;80.44
30714;BME280;17465;47.934;33.430;2023-03-04T02:14:45;57351.61;;;-140.43;82.09
30714;BME280;17465;47.934;33.430;2023-03-04T02:17:16;57362.20;;;-140.43;82.71
30714;BME280;17465;47.934;33.430;2023-03-04T02:19:50;57372.79;;;-140.43;83.46
30714;BME280;17465;47.934;33.430;2023-03-04T02:22:22;57367.50;;;-140.43;83.17
30714;BME280;17465;47.934;33.430;2023-03-04T02:24:55;57371.73;;;-140.43;83.52
30714;BME280;17465;47.934;33.430;2023-03-04T02:27:26;57363.26;;;-140.43;84.20
30714;BME280;17465;47.934;33.430;2023-03-04T02:29:57;57363.26;;;-140.43;84.20
30714;BME280;17465;47.934;33.430;2023-03-04T02:32:28;57385.50;;;-140.43;84.31
30714;BME280;17465;47.934;33.430;2023-03-04T02:34:58;57351.61;;;-140.43;84.94
30714;BME280;17465;47.934;33.430;2023-03-04T02:37:31;57364.32;;;-140.43;84.51
30714;BME280;17465;47.934;33.430;2023-03-04T02:40:01;57370.68;;;-140.43;85.02
30714;BME280;17465;47.934;33.430;2023-03-04T02:42:32;57370.68;;;-140.43;85.02
30714;BME280;17465;47.934;33.430;2023-03-04T02:45:02;57379.15;;;-140.43;84.91
30714;BME280;17465;47.934;33.430;2023-03-04T02:47:37;57397.15;;;-140.43;85.51
30714;BME280;17465;47.934;33.430;2023-03-04T02:50:08;57359.03;;;-140.43;87.00
30714;BME280;17465;47.934;33.430;2023-03-04T02:52:39;57372.79;;;-140.43;86.33
30714;BME280;17465;47.934;33.430;2023-03-04T02:55:09;57372.79;;;-140.43;86.33
30714;BME280;17465;47.934;33.430;2023-03-04T02:57:40;57373.85;;;-140.43;86.32
30714;BME280;17465;47.934;33.430;2023-03-04T03:00:11;57373.85;;;-140.43;86.32
30714;BME280;17465;47.934;33.430;2023-03-04T03:02:43;57365.38;;;-140.43;86.46
30714;BME280;17465;47.934;33.430;2023-03-04T03:05:14;57347.38;;;-140.43;86.40
30714;BME280;17465;47.934;33.430;2023-03-04T03:07:46;57372.79;;;-140.43;87.00
30714;BME280;17465;47.934;33.430;2023-03-04T03:10:17;57372.79;;;-140.43;87.00
30714;BME280;17465;47.934;33.430;2023-03-04T03:12:48;57368.55;;;-140.43;87.25
30714;BME280;17465;47.934;33.430;2023-03-04T03:18:19;57392.91;;;-140.43;88.17
30714;BME280;17465;47.934;33.430;2023-03-04T03:20:49;57373.85;;;-140.43;88.42
30714;BME280;17465;47.934;33.430;2023-03-04T03:23:19;57360.08;;;-140.43;88.56
30714;BME280;17465;47.934;33.430;2023-03-04T03:25:50;57373.85;;;-140.43;89.28
30714;BME280;17465;47.934;33.430;2023-03-04T03:28:21;57383.38;;;-140.43;89.78
30714;BME280;17465;47.934;33.430;2023-03-04T03:30:52;57382.32;;;-140.43;90.12
30714;BME280;17465;47.934;33.430;2023-03-04T03:33:22;57391.86;;;-140.43;89.99
30714;BME280;17465;47.934;33.430;2023-03-04T03:35:53;57391.86;;;-140.43;89.99
30714;BME280;17465;47.934;33.430;2023-03-04T03:38:23;57367.50;;;-140.43;90.01
30714;BME280;17465;47.934;33.430;2023-03-04T03:40:54;57370.68;;;-140.43;90.14
30714;BME280;17465;47.934;33.430;2023-03-04T03:43:25;57349.49;;;-140.43;90.27
30714;BME280;17465;47.934;33.430;2023-03-04T03:45:55;57349.49;;;-140.43;90.27
30714;BME280;17465;47.934;33.430;2023-03-04T03:48:26;57375.97;;;-140.43;90.49
30714;BME280;17465;47.934;33.430;2023-03-04T03:50:57;57349.49;;;-140.43;90.82
30714;BME280;17465;47.934;33.430;2023-03-04T03:53:27;57349.49;;;-140.43;90.82
30714;BME280;17465;47.934;33.430;2023-03-04T03:55:58;57367.50;;;-140.43;90.17
30714;BME280;17465;47.934;33.430;2023-03-04T03:58:29;57348.43;;;-140.43;90.14
30714;BME280;17465;47.934;33.430;2023-03-04T04:00:59;57363.26;;;-140.43;89.43
30714;BME280;17465;47.934;33.430;2023-03-04T04:03:30;57381.27;;;-140.43;88.87
30714;BME280;17465;47.934;33.430;2023-03-04T04:06:01;57354.79;;;-140.43;88.89
30714;BME280;17465;47.934;33.430;2023-03-04T04:08:32;57369.62;;;-140.43;90.14
30714;BME280;17465;47.934;33.430;2023-03-04T04:11:03;57369.62;;;-140.43;90.21
30714;BME280;17465;47.934;33.430;2023-03-04T04:13:33;57369.62;;;-140.43;90.21
30714;BME280;17465;47.934;33.430;2023-03-04T04:16:05;57361.14;;;-140.43;89.80
30714;BME280;17465;47.934;33.430;2023-03-04T04:18:36;57361.14;;;-140.43;89.80
30714;BME280;17465;47.934;33.430;2023-03-04T04:21:08;57374.91;;;-140.43;91.01
30714;BME280;17465;47.934;33.430;2023-03-04T04:23:38;57374.91;;;-140.43;91.01
30714;BME280;17465;47.934;33.430;2023-03-04T04:26:08;57364.32;;;-140.43;90.66
30714;BME280;17465;47.934;33.430;2023-03-04T04:28:39;57335.73;;;-140.43;90.49
30714;BME280;17465;47.934;33.430;2023-03-04T04:31:10;57335.73;;;-140.43;90.49
30714;BME280;17465;47.934;33.430;2023-03-04T04:33:40;57355.85;;;-140.43;90.36
30714;BME280;17465;47.934;33.430;2023-03-04T04:36:13;57355.85;;;-140.43;90.36
30714;BME280;17465;47.934;33.430;2023-03-04T04:38:45;57373.85;;;-140.43;90.46
30714;BME280;17465;47.934;33.430;2023-03-04T04:41:25;57373.85;;;-140.43;90.46
30714;BME280;17465;47.934;33.430;2023-03-04T04:43:55;57396.09;;;-140.43;90.52
30714;BME280;17465;47.934;33.430;2023-03-04T04:46:26;57342.08;;;-140.43;89.83
30714;BME280;17465;47.934;33.430;2023-03-04T04:48:57;57397.15;;;-140.43;89.54
30714;BME280;17465;47.934;33.430;2023-03-04T04:51:27;57359.03;;;-140.43;89.84
30714;BME280;17465;47.934;33.430;2023-03-04T04:53:59;57359.03;;;-140.43;89.84
30714;BME280;17465;47.934;33.430;2023-03-04T04:56:31;57388.68;;;-140.43;89.54
30714;BME280;17465;47.934;33.430;2023-03-04T04:59:03;57347.38;;;-140.43;89.65
30714;BME280;17465;47.934;33.430;2023-03-04T05:01:34;57347.38;;;-140.43;89.65
30714;BME280;17465;47.934;33.430;2023-03-04T05:04:05;57403.51;;;-140.43;89.78
30714;BME280;17465;47.934;33.430;2023-03-04T05:06:35;57372.79;;;-140.43;89.18
30714;BME280;17465;47.934;33.430;2023-03-04T05:09:07;57372.79;;;-140.43;89.18
30714;BME280;17465;47.934;33.430;2023-03-04T05:11:38;57374.91;;;-140.43;88.29
30714;BME280;17465;47.934;33.430;2023-03-04T05:14:09;57364.32;;;-140.43;88.56
30714;BME280;17465;47.934;33.430;2023-03-04T05:16:39;57364.32;;;-140.43;88.56
30714;BME280;17465;47.934;33.430;2023-03-04T05:19:09;57368.55;;;-140.43;87.88
30714;BME280;17465;47.934;33.430;2023-03-04T05:21:40;57403.51;;;-140.43;87.93
30714;BME280;17465;47.934;33.430;2023-03-04T05:24:11;57366.44;;;-140.43;87.51
30714;BME280;17465;47.934;33.430;2023-03-04T05:26:41;57374.91;;;-140.43;88.01
30714;BME280;17465;47.934;33.430;2023-03-04T05:29:12;57359.03;;;-140.43;87.85
30714;BME280;17465;47.934;33.430;2023-03-04T05:31:42;57391.86;;;-140.43;87.78
30714;BME280;17465;47.934;33.430;2023-03-04T05:34:14;57391.86;;;-140.43;87.78
30714;BME280;17465;47.934;33.430;2023-03-04T05:36:44;57359.03;;;-140.43;87.29
30714;BME280;17465;47.934;33.430;2023-03-04T05:39:15;57356.91;;;-140.43;86.58
30714;BME280;17465;47.934;33.430;2023-03-04T05:41:45;57384.44;;;-140.43;86.16
30714;BME280;17465;47.934;33.430;2023-03-04T05:44:18;57378.09;;;-140.43;87.18
30714;BME280;17465;47.934;33.430;2023-03-04T05:46:48;57352.67;;;-140.43;86.97
30714;BME280;17465;47.934;33.430;2023-03-04T05:49:19;57352.67;;;-140.43;86.97
30714;BME280;17465;47.934;33.430;2023-03-04T05:51:50;57355.85;;;-140.43;86.58
30714;BME280;17465;47.934;33.430;2023-03-04T05:54:20;57380.21;;;-140.43;85.15
30714;BME280;17465;47.934;33.430;2023-03-04T05:56:54;57353.73;;;-140.43;84.68
30714;BME280;17465;47.934;33.430;2023-03-04T05:59:24;57365.38;;;-140.43;84.40
30714;BME280;17465;47.934;33.430;2023-03-04T06:01:56;57364.32;;;-140.43;84.15
30714;BME280;17465;47.934;33.430;2023-03-04T06:04:26;57364.32;;;-140.43;84.15
30714;BME280;17465;47.934;33.430;2023-03-04T06:06:58;57361.14;;;-140.43;84.45
30714;BME280;17465;47.934;33.430;2023-03-04T06:09:29;57337.84;;;-140.43;83.17
30714;BME280;17465;47.934;33.430;2023-03-04T06:11:59;57337.84;;;-140.43;83.17
30714;BME280;17465;47.934;33.430;2023-03-04T06:14:31;57344.20;;;-140.43;83.20
30714;BME280;17465;47.934;33.430;2023-03-04T06:17:04;57352.67;;;-140.43;82.05
30714;BME280;17465;47.934;33.430;2023-03-04T06:19:37;57371.73;;;-140.43;83.42
30714;BME280;17465;47.934;33.430;2023-03-04T06:22:09;57357.96;;;-140.43;82.95
30714;BME280;17465;47.934;33.430;2023-03-04T06:24:53;57377.03;;;-140.43;83.78
30714;BME280;17465;47.934;33.430;2023-03-04T06:27:13;57343.14;;;-140.43;82.43
30714;BME280;17465;47.934;33.430;2023-03-04T06:29:51;57343.14;;;-140.43;82.43
30714;BME280;17465;47.934;33.430;2023-03-04T06:32:32;57312.43;;;-140.43;70.57
30714;BME280;17465;47.934;33.430;2023-03-04T06:35:15;57295.48;;;-140.43;72.59
30714;BME280;17465;47.934;33.430;2023-03-04T06:37:45;57295.48;;;-140.43;70.57
30714;BME280;17465;47.934;33.430;2023-03-04T06:40:28;57326.20;;;-140.43;67.75
30714;BME280;17465;47.934;33.430;2023-03-04T06:43:02;57327.25;;;-140.43;60.13
30714;BME280;17465;47.934;33.430;2023-03-04T06:45:37;57303.95;;;-140.43;55.76
30714;BME280;17465;47.934;33.430;2023-03-04T06:48:08;57291.25;;;-140.43;57.25
30714;BME280;17465;47.934;33.430;2023-03-04T06:50:41;57303.95;;;-140.43;55.78
30714;BME280;17465;47.934;33.430;2023-03-04T06:53:11;57284.89;;;-140.43;54.09
30714;BME280;17465;47.934;33.430;2023-03-04T06:55:44;57282.77;;;-140.43;54.27
30714;BME280;17465;47.934;33.430;2023-03-04T06:58:16;57327.25;;;-140.43;52.55
30714;BME280;17465;47.934;33.430;2023-03-04T07:00:46;57327.25;;;-140.43;52.55
30714;BME280;17465;47.934;33.430;2023-03-04T07:03:17;57308.19;;;-140.43;59.54
30714;BME280;17465;47.934;33.430;2023-03-04T07:05:48;57319.84;;;-140.43;59.25
30714;BME280;17465;47.934;33.430;2023-03-04T07:08:20;57292.30;;;-140.43;55.52
30714;BME280;17465;47.934;33.430;2023-03-04T07:10:51;57290.18;;;-140.43;56.29
30714;BME280;17465;47.934;33.430;2023-03-04T07:13:22;57317.72;;;-140.43;51.93
30714;BME280;17465;47.934;33.430;2023-03-04T07:15:53;57263.71;;;-140.43;48.25
30714;BME280;17465;47.934;33.430;2023-03-04T07:18:24;57321.96;;;-140.43;52.07
30714;BME280;17465;47.934;33.430;2023-03-04T07:20:55;57293.36;;;-140.43;53.25
30714;BME280;17465;47.934;33.430;2023-03-04T07:23:25;57332.55;;;-140.43;52.96
30714;BME280;17465;47.934;33.430;2023-03-04T07:25:56;57332.55;;;-140.43;52.96
30714;BME280;17465;47.934;33.430;2023-03-04T07:28:31;57315.61;;;-140.43;50.16
30714;BME280;17465;47.934;33.430;2023-03-04T07:31:10;57303.95;;;-140.43;51.00
30714;BME280;17465;47.934;33.430;2023-03-04T07:33:42;57303.95;;;-140.43;51.00
30714;BME280;17465;47.934;33.430;2023-03-04T07:36:13;57312.43;;;-140.43;48.64
30714;BME280;17465;47.934;33.430;2023-03-04T07:38:44;57295.48;;;-140.43;53.15
30714;BME280;17465;47.934;33.430;2023-03-04T07:41:17;57295.48;;;-140.43;53.15
30714;BME280;17465;47.934;33.430;2023-03-04T07:43:48;57328.31;;;-140.43;57.18
30714;BME280;17465;47.934;33.430;2023-03-04T07:46:18;57328.31;;;-140.43;57.18
30714;BME280;17465;47.934;33.430;2023-03-04T07:48:53;57303.95;;;-140.43;56.56
30714;BME280;17465;47.934;33.430;2023-03-04T07:51:26;57303.95;;;-140.43;56.56
30714;BME280;17465;47.934;33.430;2023-03-04T07:53:58;57291.25;;;-140.43;54.27
30714;BME280;17465;47.934;33.430;2023-03-04T07:56:32;57314.55;;;-140.43;55.32
30714;BME280;17465;47.934;33.430;2023-03-04T07:59:04;57314.55;;;-140.43;55.32
30714;BME280;17465;47.934;33.430;2023-03-04T08:01:36;57331.49;;;-140.43;54.42
30714;BME280;17465;47.934;33.430;2023-03-04T08:04:07;57295.48;;;-140.43;51.12
30714;BME280;17465;47.934;33.430;2023-03-04T08:06:39;57292.30;;;-140.43;49.82
30714;BME280;17465;47.934;33.430;2023-03-04T08:09:11;57301.84;;;-140.43;45.89
30714;BME280;17465;47.934;33.430;2023-03-04T08:11:42;57301.84;;;-140.43;45.89
30714;BME280;17465;47.934;33.430;2023-03-04T08:14:13;57306.07;;;-140.43;45.96
30714;BME280;17465;47.934;33.430;2023-03-04T08:16:44;57325.14;;;-140.43;47.55
30714;BME280;17465;47.934;33.430;2023-03-04T08:19:14;57315.61;;;-140.43;45.24
30714;BME280;17465;47.934;33.430;2023-03-04T08:21:45;57307.13;;;-140.43;45.37
30714;BME280;17465;47.934;33.430;2023-03-04T08:24:17;57305.01;;;-140.43;43.41
30714;BME280;17465;47.934;33.430;2023-03-04T08:26:50;57312.43;;;-140.43;41.49
30714;BME280;17465;47.934;33.430;2023-03-04T08:29:22;57327.25;;;-140.43;38.90
30714;BME280;17465;47.934;33.430;2023-03-04T08:31:54;57297.60;;;-140.43;40.77
30714;BME280;17465;47.934;33.430;2023-03-04T08:34:31;57297.60;;;-140.43;40.77
30714;BME280;17465;47.934;33.430;2023-03-04T08:37:02;57288.07;;;-140.43;40.51
30714;BME280;17465;47.934;33.430;2023-03-04T08:39:36;57288.07;;;-140.43;40.51
30714;BME280;17465;47.934;33.430;2023-03-04T08:42:07;57315.61;;;-140.43;38.75
30714;BME280;17465;47.934;33.430;2023-03-04T08:44:39;57316.66;;;-140.43;38.10
30714;BME280;17465;47.934;33.430;2023-03-04T08:47:10;57335.73;;;-140.43;35.86
30714;BME280;17465;47.934;33.430;2023-03-04T08:49:41;57307.13;;;-140.43;36.30
30714;BME280;17465;47.934;33.430;2023-03-04T08:52:12;57320.90;;;-140.43;37.46
30714;BME280;17465;47.934;33.430;2023-03-04T08:54:42;57320.90;;;-140.43;37.46
30714;BME280;17465;47.934;33.430;2023-03-04T08:57:13;57352.67;;;-140.43;38.16
30714;BME280;17465;47.934;33.430;2023-03-04T08:59:49;57310.31;;;-140.43;39.63
30714;BME280;17465;47.934;33.430;2023-03-04T09:02:16;57326.20;;;-140.43;38.08
30714;BME280;17465;47.934;33.430;2023-03-04T09:04:47;57343.14;;;-140.43;35.83
30714;BME280;17465;47.934;33.430;2023-03-04T09:07:17;57336.79;;;-140.43;39.38
30714;BME280;17465;47.934;33.430;2023-03-04T09:09:48;57349.49;;;-140.43;36.90
30714;BME280;17465;47.934;33.430;2023-03-04T09:12:20;57327.25;;;-140.43;36.33
30714;BME280;17465;47.934;33.430;2023-03-04T09:14:52;57338.90;;;-140.43;36.73
30714;BME280;17465;47.934;33.430;2023-03-04T09:17:25;57334.67;;;-140.43;36.84
30714;BME280;17465;47.934;33.430;2023-03-04T09:19:59;57295.48;;;-140.43;38.30
30714;BME280;17465;47.934;33.430;2023-03-04T09:22:33;57295.48;;;-140.43;38.30
30714;BME280;17465;47.934;33.430;2023-03-04T09:25:06;57353.73;;;-140.43;35.75
30714;BME280;17465;47.934;33.430;2023-03-04T09:27:41;57307.13;;;-140.43;36.33
30714;BME280;17465;47.934;33.430;2023-03-04T09:30:12;57316.66;;;-140.43;36.43
30714;BME280;17465;47.934;33.430;2023-03-04T09:32:46;57326.20;;;-140.43;36.66
30714;BME280;17465;47.934;33.430;2023-03-04T09:35:19;57326.20;;;-140.43;36.66
30714;BME280;17465;47.934;33.430;2023-03-04T09:37:52;57337.84;;;-140.43;34.30
30714;BME280;17465;47.934;33.430;2023-03-04T09:40:26;57337.84;;;-140.43;34.30
30714;BME280;17465;47.934;33.430;2023-03-04T09:43:01;57352.67;;;-140.43;35.66
30714;BME280;17465;47.934;33.430;2023-03-04T09:45:40;57314.55;;;-140.43;36.28
30714;BME280;17465;47.934;33.430;2023-03-04T09:48:14;57327.25;;;-140.43;36.29
30714;BME280;17465;47.934;33.430;2023-03-04T09:51:07;57313.48;;;-140.43;37.99
30714;BME280;17465;47.934;33.430;2023-03-04T09:53:39;57316.66;;;-140.43;36.29
30714;BME280;17465;47.934;33.430;2023-03-04T09:56:09;57314.55;;;-140.43;36.71
30714;BME280;17465;47.934;33.430;2023-03-04T10:01:33;57338.90;;;-140.43;36.64
30714;BME280;17465;47.934;33.430;2023-03-04T10:04:29;57308.19;;;-140.43;35.41
30714;BME280;17465;47.934;33.430;2023-03-04T10:06:36;57354.79;;;-140.43;37.27
30714;BME280;17465;47.934;33.430;2023-03-04T10:09:15;57334.67;;;-140.43;36.80
30714;BME280;17465;47.934;33.430;2023-03-04T10:11:47;57320.90;;;-140.43;37.32
30714;BME280;17465;47.934;33.430;2023-03-04T10:14:33;57305.01;;;-140.43;35.94
30714;BME280;17465;47.934;33.430;2023-03-04T10:20:23;57345.26;;;-140.43;36.56
30714;BME280;17465;47.934;33.430;2023-03-04T10:22:59;57299.72;;;-140.43;36.09
30714;BME280;17465;47.934;33.430;2023-03-04T10:25:31;57324.07;;;-140.43;36.96
30714;BME280;17465;47.934;33.430;2023-03-04T10:28:15;57326.20;;;-140.43;36.79
30714;BME280;17465;47.934;33.430;2023-03-04T10:31:01;57354.79;;;-140.43;35.85
30714;BME280;17465;47.934;33.430;2023-03-04T10:33:35;57328.31;;;-140.43;36.29
30714;BME280;17465;47.934;33.430;2023-03-04T10:39:16;57302.89;;;-140.43;36.85
30714;BME280;17465;47.934;33.430;2023-03-04T10:41:57;57339.96;;;-140.43;36.04
30714;BME280;17465;47.934;33.430;2023-03-04T10:44:18;57339.96;;;-140.43;36.04
30714;BME280;17465;47.934;33.430;2023-03-04T10:46:49;57315.61;;;-140.43;35.78
30714;BME280;17465;47.934;33.430;2023-03-04T10:49:21;57313.48;;;-140.43;36.73
30714;BME280;17465;47.934;33.430;2023-03-04T10:52:18;57329.37;;;-140.43;36.73
30714;BME280;17465;47.934;33.430;2023-03-04T10:54:56;57320.90;;;-140.43;37.16
30714;BME280;17465;47.934;33.430;2023-03-04T10:57:36;57320.90;;;-140.43;37.16
30714;BME280;17465;47.934;33.430;2023-03-04T11:02:50;57332.55;;;-140.43;34.77
30714;BME280;17465;47.934;33.430;2023-03-04T11:05:26;57325.14;;;-140.43;35.35
30714;BME280;17465;47.934;33.430;2023-03-04T11:07:59;57303.95;;;-140.43;34.56
30714;BME280;17465;47.934;33.430;2023-03-04T11:10:38;57303.95;;;-140.43;34.56
30714;BME280;17465;47.934;33.430;2023-03-04T11:13:16;57312.43;;;-140.43;34.49
30714;BME280;17465;47.934;33.430;2023-03-04T11:15:54;57312.43;;;-140.43;34.49
30714;BME280;17465;47.934;33.430;2023-03-04T11:18:45;57343.14;;;-140.43;34.31
30714;BME280;17465;47.934;33.430;2023-03-04T11:21:30;57356.91;;;-140.43;33.39
30714;BME280;17465;47.934;33.430;2023-03-04T11:24:21;57328.31;;;-140.43;32.25
30714;BME280;17465;47.934;33.430;2023-03-04T11:29:34;57316.66;;;-140.43;33.74
30714;BME280;17465;47.934;33.430;2023-03-04T11:40:32;57331.49;;;-140.43;33.38
30714;BME280;17465;47.934;33.430;2023-03-04T11:51:36;57346.32;;;-140.43;33.04
30714;BME280;17465;47.934;33.430;2023-03-04T11:56:52;57336.79;;;-140.43;33.89
30714;BME280;17465;47.934;33.430;2023-03-04T11:59:47;57330.43;;;-140.43;33.95
30714;BME280;17465;47.934;33.430;2023-03-04T12:02:22;57330.43;;;-140.43;33.95
30714;BME280;17465;47.934;33.430;2023-03-04T12:05:08;57344.20;;;-140.43;32.80
30714;BME280;17465;47.934;33.430;2023-03-04T12:15:48;57342.08;;;-140.43;32.08
30714;BME280;17465;47.934;33.430;2023-03-04T12:18:27;57346.32;;;-140.43;31.60
30714;BME280;17465;47.934;33.430;2023-03-04T12:26:34;57337.84;;;-140.43;31.55
30714;BME280;17465;47.934;33.430;2023-03-04T12:35:32;57345.26;;;-140.43;31.83
30714;BME280;17465;47.934;33.430;2023-03-04T12:44:13;57325.14;;;-140.43;31.82
30714;BME280;17465;47.934;33.430;2023-03-04T12:55:02;57354.79;;;-140.43;30.84
30714;BME280;17465;47.934;33.430;2023-03-04T12:57:34;57339.96;;;-140.43;31.38
30714;BME280;17465;47.934;33.430;2023-03-04T13:00:29;57349.49;;;-140.43;31.32
30714;BME280;17465;47.934;33.430;2023-03-04T13:16:51;57333.61;;;-140.43;30.17
30714;BME280;17465;47.934;33.430;2023-03-04T13:19:50;57320.90;;;-140.43;30.25
30714;BME280;17465;47.934;33.430;2023-03-04T13:22:31;57323.02;;;-140.43;30.07
30714;BME280;17465;47.934;33.430;2023-03-04T13:25:28;57352.67;;;-140.43;30.07
30714;BME280;17465;47.934;33.430;2023-03-04T13:28:05;57352.67;;;-140.43;30.07
30714;BME280;17465;47.934;33.430;2023-03-04T13:35:48;57331.49;;;-140.43;30.04
30714;BME280;17465;47.934;33.430;2023-03-04T13:38:32;57347.38;;;-140.43;29.61
30714;BME280;17465;47.934;33.430;2023-03-04T13:43:48;57360.08;;;-140.43;30.44
30714;BME280;17465;47.934;33.430;2023-03-04T13:57:16;57335.73;;;-140.43;33.49
30714;BME280;17465;47.934;33.430;2023-03-04T13:59:51;57289.13;;;-140.43;33.64
30714;BME280;17465;47.934;33.430;2023-03-04T14:02:23;57337.84;;;-140.43;33.68
30714;BME280;17465;47.934;33.430;2023-03-04T14:04:58;57338.90;;;-140.43;33.22
30714;BME280;17465;47.934;33.430;2023-03-04T14:07:35;57336.79;;;-140.43;34.36
30714;BME280;17465;47.934;33.430;2023-03-04T14:12:47;57313.48;;;-140.43;33.93
30714;BME280;17465;47.934;33.430;2023-03-04T14:15:29;57337.84;;;-140.43;33.63
30714;BME280;17465;47.934;33.430;2023-03-04T14:18:04;57355.85;;;-140.43;33.31
30714;BME280;17465;47.934;33.430;2023-03-04T14:20:39;57327.25;;;-140.43;33.44
30714;BME280;17465;47.934;33.430;2023-03-04T14:23:32;57325.14;;;-140.43;33.13
30714;BME280;17465;47.934;33.430;2023-03-04T14:26:05;57313.48;;;-140.43;33.72
30714;BME280;17465;47.934;33.430;2023-03-04T14:28:49;57312.43;;;-140.43;33.75
30714;BME280;17465;47.934;33.430;2023-03-04T14:31:23;57334.67;;;-140.43;33.65
30714;BME280;17465;47.934;33.430;2023-03-04T14:33:55;57302.89;;;-140.43;34.16
30714;BME280;17465;47.934;33.430;2023-03-04T14:36:31;57323.02;;;-140.43;34.06
30714;BME280;17465;47.934;33.430;2023-03-04T14:39:04;57323.02;;;-140.43;34.06
30714;BME280;17465;47.934;33.430;2023-03-04T14:41:38;57333.61;;;-140.43;34.28
30714;BME280;17465;47.934;33.430;2023-03-04T14:44:28;57327.25;;;-140.43;34.93
30714;BME280;17465;47.934;33.430;2023-03-04T14:47:01;57316.66;;;-140.43;34.85
30714;BME280;17465;47.934;33.430;2023-03-04T14:49:34;57312.43;;;-140.43;35.01